Seaworld — ECHJ — position and weather

sailwx.info

Track history (hours):
 
Tides and Currents Weather Stations Pressure Air Temp Water Temp Dewpoint Dewpoint Depression Visibility Wind Speed Wind Dir Waves Ship Positions

Seaworld

Last reported at 2018-Jun-21 16:57 UTC. Time now 2018-Jun-23 17:35 UTC.
Position N 38°30' W 000°13'.

Length 30 m.

Type: Passenger vessel. MMSI: 224133620.

Date/timePositionNaut miles runAvg speedWind from/ knotsBaromVisibWave heightAir tempDewpointWater temp
2018-Jun-21 16:57N 38°30' W 000°13'3 6.2
2018-Jun-21 16:30N 38°31' W 000°10'1223.2
2018-Jun-21 16:00N 38°24' W 000°22'11 3.4
2018-Jun-21 12:44N 38°14' W 000°29'  
2018-Jun-14 12:11N 38°12' W 000°29'2 3.6
2018-Jun-14 11:41N 38°10' W 000°29'0 0.0
2018-Jun-14 11:11N 38°10' W 000°29'0 0.0
2018-Jun-14 11:00N 38°10' W 000°29'0 0.0
2018-Jun-14 10:30N 38°10' W 000°29'0 0.3
2018-Jun-14 09:45N 38°10' W 000°29'2410.1
2018-Jun-14 07:25N 38°30' W 000°13'3 0.1
2018-Jun-12 16:18N 38°28' W 000°15'17 4.6
2018-Jun-12 12:43N 38°15' W 000°29'523.2
2018-Jun-12 12:30N 38°10' W 000°29'0 0.5
2018-Jun-12 11:59N 38°10' W 000°29'  
Track history (hours):
 
Tides and Currents Weather Stations Pressure Air Temp Water Temp Dewpoint Dewpoint Depression Visibility Wind Speed Wind Dir Waves Ship Positions

Seaworld

Last reported at 2018-Jun-21 16:57 UTC. Time now 2018-Jun-23 17:35 UTC.
Position N 38°30' W 000°13'.

Length 30 m.

Type: Passenger vessel. MMSI: 224133620.

Date/timePositionNaut miles runAvg speedWind from/ knotsBaromVisibWave heightAir tempDewpointWater temp
2018-Jun-21 16:57N 38°30' W 000°13'3 6.2
2018-Jun-21 16:30N 38°31' W 000°10'1223.2
2018-Jun-21 16:00N 38°24' W 000°22'11 3.4
2018-Jun-21 12:44N 38°14' W 000°29'  
2018-Jun-14 12:11N 38°12' W 000°29'2 3.6
2018-Jun-14 11:41N 38°10' W 000°29'0 0.0
2018-Jun-14 11:11N 38°10' W 000°29'0 0.0
2018-Jun-14 11:00N 38°10' W 000°29'0 0.0
2018-Jun-14 10:30N 38°10' W 000°29'0 0.3
2018-Jun-14 09:45N 38°10' W 000°29'2410.1
2018-Jun-14 07:25N 38°30' W 000°13'3 0.1
2018-Jun-12 16:18N 38°28' W 000°15'17 4.6
2018-Jun-12 12:43N 38°15' W 000°29'523.2
2018-Jun-12 12:30N 38°10' W 000°29'0 0.5
2018-Jun-12 11:59N 38°10' W 000°29'  

Dump ship's entire track history